Nearby METAR Reports

 

KLBE - Latrobe/Westmorl, Pennsylvania, USA
Distance from station: SE 16mi, 26km
Updated: Tue, 21-Oct-2014 8:45pm EDT
Overcast
Overcast
 Wind from WNW
Wind: WNW 9 mph , 15 km/h
Clouds: Overcast
Visibility: 7 miles , 11 km
Cloud details: Overcast 800 ft
2014/10/22 00:45 KLBE 220045Z 30008KT 7SM OVC008 M/M A3001
KAGC - Pittsburgh/Alleg, Pennsylvania, USA
Distance from station: WSW 18mi, 30km
Updated: Tue, 21-Oct-2014 8:53pm EDT
Overcast
Overcast
 Wind from NNW
Wind: NNW 8 mph , 13 km/h
Temperature: 48°F , 9°C
Wind Chill: 44°F , 7°C
Dew Point: 43°F , 6°C
Humidity: 82%
Barometer: 29.99 inHg , 1015.6 hPa
Clouds: Overcast
Visibility: 10 miles , 16 km
Cloud details: Overcast 1000 ft
2014/10/22 00:53 KAGC 220053Z 33007KT 10SM OVC010 09/06 A2999 RMK AO2 SLP162 T00890056
 
KBTP - Butler Co., Pennsylvania, USA
Distance from station: NW 29mi, 47km
Updated: Tue, 21-Oct-2014 9:15pm EDT
Overcast
Overcast
 Wind from WNW
Wind: WNW 5 mph , 7 km/h
Temperature: 46°F , 8°C
Wind Chill: 44°F , 7°C
Dew Point: 43°F , 6°C
Humidity: 87%
Barometer: 30.02 inHg , 1016.6 hPa
Clouds: Overcast
Visibility: 10 miles , 16 km
Cloud details: Overcast 900 ft
2014/10/22 01:15 KBTP 220115Z AUTO 30004KT 10SM OVC009 08/06 A3002 RMK AO1
KIDI - Indiana/Stewart, Pennsylvania, USA
Distance from station: ENE 29mi, 47km
Updated: Tue, 21-Oct-2014 9:15pm EDT
Mist, Overcast
Mist, Overcast
 Wind from NNW
Wind: NNW 6 mph , 9 km/h
Temperature: 48°F , 9°C
Wind Chill: 45°F , 7°C
Dew Point: 46°F , 8°C
Humidity: 94%
Barometer: 30.01 inHg , 1016.3 hPa
Summary: Mist
Clouds: Overcast
Visibility: 2 miles , 3 km
Cloud details: Partly cloudy 700 ft
Mostly cloudy 1000 ft
Overcast 2000 ft
2014/10/22 01:15 KIDI 220115Z AUTO 33005KT 2SM BR SCT007 BKN010 OVC020 09/08 A3001 RMK A01
 
KPIT - Pittsburgh, Pennsylvania, USA
Distance from station: W 36mi, 57km
Updated: Tue, 21-Oct-2014 8:51pm EDT
Overcast
Overcast
 Wind from NW
Wind: NW 12 mph , 19 km/h
Temperature: 48°F , 9°C
Wind Chill: 43°F , 6°C
Dew Point: 45°F , 7°C
Humidity: 87%
Barometer: 30.00 inHg , 1015.9 hPa
Clouds: Overcast
Visibility: 10 miles , 16 km
Cloud details: Overcast 1000 ft
2014/10/22 00:51 KPIT 220051Z 32010KT 10SM OVC010 09/07 A3000 RMK AO2 SLP169 T00890072
KJST - Johnstown, Pennsylvania, USA
Distance from station: ESE 41mi, 66km
Updated: Tue, 21-Oct-2014 9:02pm EDT
Overcast
Overcast
 Wind from NW
Wind: NW 14 mph , 22 km/h
Temperature: 45°F , 7°C
Wind Chill: 39°F , 4°C
Dew Point: 43°F , 6°C
Humidity: 93%
Barometer: 29.94 inHg , 1013.9 hPa
Clouds: Overcast
Visibility: 10 miles , 16 km
Cloud details: Overcast 400 ft
2014/10/22 01:02 KJST 220102Z AUTO 32012KT 10SM OVC004 07/06 A2994 RMK AO2 T00720061
 
KAFJ - Washington, Pennsylvania, USA
Distance from station: WSW 42mi, 68km
Updated: Tue, 21-Oct-2014 9:15pm EDT
Overcast
Overcast
 Wind from NW
Wind: NW 9 mph , 15 km/h
Temperature: 46°F , 8°C
Wind Chill: 41°F , 5°C
Dew Point: 43°F , 6°C
Humidity: 87%
Barometer: 30.03 inHg , 1016.9 hPa
Clouds: Overcast
Visibility: 10 miles , 16 km
Cloud details: Overcast 1100 ft
2014/10/22 01:15 KAFJ 220115Z AUTO 31008KT 10SM OVC011 08/06 A3003 RMK AO1
KBVI - Beaver Falls Arp, Pennsylvania, USA
Distance from station: WNW 48mi, 77km
Updated: Tue, 21-Oct-2014 8:47pm EDT
Overcast
Overcast
 Wind from NW
Wind: NW 6 mph , 9 km/h
Temperature: 46°F , 8°C
Wind Chill: 43°F , 6°C
Dew Point: 45°F , 7°C
Humidity: 93%
Barometer: 30.00 inHg , 1015.9 hPa
Clouds: Overcast
Visibility: 10 miles , 16 km
Cloud details: Overcast 700 ft
2014/10/22 00:47 KBVI 220047Z 31005KT 10SM OVC007 08/07 A3000 RMK LAST